Time;durP1;ratioP1;P1;durP2;ratioP2;P2;SDS_P1;SDS_P2;PMS_P1;PMS_P2;Temp;Humidity;BMP_temperature;BMP_pressure;BME280_temperature;BME280_humidity;BME280_pressure;Samples;Min_cycle;Max_cycle;Signal;HPM_P1;HPM_P2
2023/03/25 00:02:46;;;;;;;3.63;0.87;;;;;;;8.44;100.00;98169.97;4928066;28;21815;-57
2023/03/25 00:05:14;;;;;;;4.80;0.97;;;;;;;8.47;100.00;98180.88;4933224;28;20244;-53
2023/03/25 00:07:41;;;;;;;3.60;0.80;;;;;;;8.42;100.00;98176.16;4930364;28;20348;-58
2023/03/25 00:10:10;;;;;;;5.73;0.70;;;;;;;8.39;100.00;98171.25;4929544;28;20759;-54
2023/03/25 00:12:37;;;;;;;5.63;0.77;;;;;;;8.38;97.72;98161.81;4931719;28;20255;-55
2023/03/25 00:15:04;;;;;;;5.67;1.00;;;;;;;8.33;98.54;98174.44;4931973;28;20628;-54
2023/03/25 00:17:31;;;;;;;2.40;0.67;;;;;;;8.21;99.60;98186.81;4932685;29;20586;-54
2023/03/25 00:19:59;;;;;;;8.20;0.90;;;;;;;8.17;99.19;98185.47;4931001;28;20230;-57
2023/03/25 00:22:26;;;;;;;1.77;0.60;;;;;;;8.15;99.20;98197.78;4931270;28;20290;-57
2023/03/25 00:24:53;;;;;;;3.07;0.50;;;;;;;8.12;97.46;98179.88;4931184;29;20264;-56
2023/03/25 00:27:21;;;;;;;3.70;0.70;;;;;;;8.15;96.26;98171.78;4935277;28;20843;-57
2023/03/25 00:29:48;;;;;;;3.07;0.93;;;;;;;8.17;97.28;98166.47;4930092;28;20691;-55
2023/03/25 00:32:15;;;;;;;4.50;0.83;;;;;;;8.18;95.80;98158.50;4932171;28;20244;-54
2023/03/25 00:34:46;;;;;;;3.07;0.60;;;;;;;8.16;97.12;98154.44;4929574;28;20238;-55
2023/03/25 00:37:16;;;;;;;6.67;0.50;;;;;;;8.17;95.57;98143.06;4918427;28;20240;-56
2023/03/25 00:39:43;;;;;;;4.03;0.50;;;;;;;8.13;96.08;98147.72;4911822;29;20303;-56
2023/03/25 00:42:15;;;;;;;3.50;0.50;;;;;;;8.19;93.15;98143.72;4926971;28;20639;-54
2023/03/25 00:44:43;;;;;;;1.20;0.83;;;;;;;8.22;94.27;98141.63;4917233;29;20236;-56
2023/03/25 00:47:17;;;;;;;4.90;0.73;;;;;;;8.20;97.10;98138.38;4929896;28;20694;-56
2023/03/25 00:49:43;;;;;;;3.17;0.90;;;;;;;8.25;94.98;98135.34;4929695;29;20246;-57
2023/03/25 00:52:13;;;;;;;8.47;0.83;;;;;;;8.26;93.92;98142.97;4933008;28;20246;-57
2023/03/25 00:54:39;;;;;;;2.97;0.50;;;;;;;8.27;93.85;98133.41;4914999;29;20239;-57
2023/03/25 00:57:06;;;;;;;0.83;0.40;;;;;;;8.30;92.13;98145.28;4934094;28;20263;-56
2023/03/25 00:59:33;;;;;;;3.07;0.50;;;;;;;8.31;91.98;98133.91;4933413;28;20283;-55
2023/03/25 01:02:01;;;;;;;3.77;0.63;;;;;;;8.30;92.05;98122.72;4930871;29;20762;-56
2023/03/25 01:04:28;;;;;;;2.80;0.77;;;;;;;8.32;92.27;98107.78;4934428;28;20228;-57
2023/03/25 01:06:55;;;;;;;3.33;0.60;;;;;;;8.32;90.67;98107.78;4920309;29;20656;-56
2023/03/25 01:09:22;;;;;;;2.93;0.70;;;;;;;8.40;89.12;98105.25;4931132;28;20223;-56
2023/03/25 01:11:49;;;;;;;2.17;0.70;;;;;;;8.41;89.72;98096.50;4917059;29;20626;-56
2023/03/25 01:14:18;;;;;;;6.77;0.57;;;;;;;8.42;89.22;98098.13;4921203;29;20248;-57
2023/03/25 01:16:45;;;;;;;6.93;0.70;;;;;;;8.40;88.62;98081.00;4931565;28;20228;-57
2023/03/25 01:19:14;;;;;;;6.90;0.77;;;;;;;8.43;88.39;98085.91;4915417;28;20307;-58
2023/03/25 01:21:44;;;;;;;7.10;0.87;;;;;;;8.45;88.73;98076.19;4912664;29;20269;-56
2023/03/25 01:24:13;;;;;;;2.13;0.50;;;;;;;8.48;89.19;98075.06;4909259;29;20737;-53
2023/03/25 01:26:42;;;;;;;3.10;0.80;;;;;;;8.42;90.04;98079.91;4922397;28;20229;-56
2023/03/25 01:29:09;;;;;;;3.77;1.10;;;;;;;8.42;88.87;98072.13;4928712;28;20324;-57
2023/03/25 01:31:36;;;;;;;6.80;0.90;;;;;;;8.49;89.05;98080.16;4931221;29;20239;-56
2023/03/25 01:34:03;;;;;;;4.50;0.90;;;;;;;8.47;89.02;98086.44;4931201;29;20236;-58
2023/03/25 01:36:31;;;;;;;4.23;0.77;;;;;;;8.53;87.86;98062.44;4910217;29;20227;-56
2023/03/25 01:39:00;;;;;;;2.60;0.60;;;;;;;8.61;85.03;98061.69;4928401;28;20248;-57
2023/03/25 01:41:27;;;;;;;15.10;2.47;;;;;;;8.61;86.55;98059.91;4934308;28;20228;-56
2023/03/25 01:44:06;;;;;;;3.73;0.60;;;;;;;8.62;87.32;98095.34;4913972;29;20596;-57
2023/03/25 01:46:33;;;;;;;6.33;0.70;;;;;;;8.69;85.91;98095.59;4929813;28;20650;-56
2023/03/25 01:49:03;;;;;;;4.83;0.87;;;;;;;8.59;88.20;98132.06;4927586;29;20595;-54
2023/03/25 01:51:35;;;;;;;6.23;1.10;;;;;;;8.51;90.00;98116.41;4930416;28;20234;-56
2023/03/25 01:54:02;;;;;;;2.80;0.57;;;;;;;8.32;92.08;98144.19;4931551;29;20284;-54
2023/03/25 01:56:33;;;;;;;4.93;0.60;;;;;;;8.27;93.76;98149.81;4935467;28;20241;-56
2023/03/25 01:59:02;;;;;;;3.50;0.70;;;;;;;8.17;93.27;98132.66;4932746;28;20242;-56
2023/03/25 02:01:30;;;;;;;2.90;0.50;;;;;;;8.01;96.15;98154.91;4938524;28;20255;-54
2023/03/25 02:04:01;;;;;;;2.57;0.53;;;;;;;7.85;98.48;98172.94;4913281;29;20240;-55
2023/03/25 02:06:35;;;;;;;2.03;0.37;;;;;;;7.57;98.20;98198.88;4935997;28;20226;-57
2023/03/25 02:09:05;;;;;;;1.23;0.40;;;;;;;7.40;98.95;98183.09;4909778;29;20253;-55
2023/03/25 02:11:32;;;;;;;3.43;0.53;;;;;;;7.23;100.00;98180.28;4934483;28;20242;-55
2023/03/25 02:14:04;;;;;;;3.50;0.60;;;;;;;7.06;100.00;98178.38;4932210;28;20240;-55
2023/03/25 02:16:44;;;;;;;1.80;0.33;;;;;;;7.03;100.00;98137.16;4934967;28;20299;-55
2023/03/25 02:19:50;;;;;;;3.60;0.30;;;;;;;7.04;100.00;98162.13;4935363;28;20237;-55
2023/03/25 02:22:46;;;;;;;3.13;0.43;;;;;;;7.00;100.00;98160.78;4899756;28;20230;-53
2023/03/25 02:25:34;;;;;;;1.87;0.40;;;;;;;6.94;100.00;98155.19;4933042;28;20247;-54
2023/03/25 02:28:10;;;;;;;2.30;0.30;;;;;;;6.91;98.60;98147.69;4933666;28;20649;-54
2023/03/25 02:31:15;;;;;;;1.80;0.30;;;;;;;6.88;96.73;98124.59;4922998;29;20234;-54
2023/03/25 02:34:10;;;;;;;2.10;0.40;;;;;;;6.92;92.65;98122.53;4914662;29;20227;-55
2023/03/25 02:37:04;;;;;;;2.00;0.53;;;;;;;6.92;94.84;98115.59;4924120;29;20234;-54
2023/03/25 02:39:39;;;;;;;2.73;0.50;;;;;;;7.04;93.35;98133.59;4942846;29;20227;-52
2023/03/25 02:42:15;;;;;;;0.77;0.20;;;;;;;6.94;94.05;98121.47;4943775;29;20232;-54
2023/03/25 02:44:52;;;;;;;0.57;0.23;;;;;;;6.93;95.45;98116.38;4944555;29;20630;-55
2023/03/25 02:47:23;;;;;;;0.90;0.23;;;;;;;6.93;95.73;98119.81;4945707;29;20225;-54
2023/03/25 02:49:55;;;;;;;2.70;0.20;;;;;;;6.91;95.84;98129.53;4929978;29;20643;-53
2023/03/25 02:52:26;;;;;;;0.80;0.13;;;;;;;6.89;95.74;98128.03;4947542;29;20238;-56
2023/03/25 02:55:03;;;;;;;0.83;0.10;;;;;;;6.94;95.33;98126.66;4925574;29;20235;-56
2023/03/25 02:57:33;;;;;;;0.53;0.20;;;;;;;7.00;92.70;98134.84;4929949;29;20241;-53
2023/03/25 03:00:01;;;;;;;1.63;0.20;;;;;;;7.10;93.46;98140.81;4944101;29;20246;-56
2023/03/25 03:02:31;;;;;;;3.53;0.27;;;;;;;7.17;93.83;98149.69;4945794;29;20243;-57
2023/03/25 03:04:59;;;;;;;2.03;0.40;;;;;;;7.27;92.34;98156.63;4941556;29;20245;-56
2023/03/25 03:07:29;;;;;;;1.20;0.50;;;;;;;7.40;91.64;98136.34;4929200;29;20218;-55
2023/03/25 03:10:04;;;;;;;1.13;0.40;;;;;;;7.45;90.23;98154.91;4943440;28;20234;-55
2023/03/25 03:12:56;;;;;;;3.57;0.50;;;;;;;7.48;91.84;98140.81;4946774;28;20230;-53
2023/03/25 03:15:32;;;;;;;1.77;0.40;;;;;;;7.66;88.38;98135.69;4917635;29;20226;-56
2023/03/25 03:18:12;;;;;;;2.83;0.40;;;;;;;7.65;88.13;98142.66;4944367;28;20251;-54
2023/03/25 03:20:44;;;;;;;2.60;0.30;;;;;;;7.70;88.65;98131.84;4946984;28;20285;-53
2023/03/25 03:23:19;;;;;;;2.40;0.40;;;;;;;7.70;88.28;98142.22;4945011;28;20333;-53
2023/03/25 03:25:53;;;;;;;3.13;0.50;;;;;;;7.64;88.05;98135.84;4945387;28;20231;-53
2023/03/25 03:28:26;;;;;;;3.93;0.43;;;;;;;7.63;90.78;98134.19;4948265;28;20258;-55
2023/03/25 03:31:05;;;;;;;2.33;0.50;;;;;;;7.68;87.48;98149.34;4944458;29;20244;-57
2023/03/25 03:33:37;;;;;;;1.43;0.30;;;;;;;7.61;89.53;98143.09;4946608;29;20235;-58
2023/03/25 03:36:08;;;;;;;4.40;0.60;;;;;;;7.60;90.72;98144.88;4945108;29;20250;-56
2023/03/25 03:38:39;;;;;;;3.20;0.60;;;;;;;7.58;91.70;98153.75;4945262;29;20812;-57
2023/03/25 03:41:10;;;;;;;3.30;0.33;;;;;;;7.56;90.35;98150.50;4944191;29;20236;-53
2023/03/25 03:43:42;;;;;;;3.27;0.60;;;;;;;7.67;87.62;98158.09;4946093;29;20643;-56
2023/03/25 03:46:13;;;;;;;4.33;1.23;;;;;;;7.65;90.19;98157.41;4945396;29;20238;-54
2023/03/25 03:48:42;;;;;;;5.30;0.70;;;;;;;7.67;88.55;98164.13;4946198;29;20290;-54
2023/03/25 03:51:17;;;;;;;3.03;0.50;;;;;;;7.58;91.20;98174.53;4944744;29;20368;-56
2023/03/25 03:53:49;;;;;;;4.67;0.60;;;;;;;7.56;88.97;98160.88;4946203;29;20685;-55
2023/03/25 03:56:21;;;;;;;4.40;1.40;;;;;;;7.54;90.94;98182.63;4945416;29;20262;-53
2023/03/25 03:58:52;;;;;;;2.37;0.63;;;;;;;7.60;89.56;98159.63;4943919;29;20321;-54
2023/03/25 04:01:26;;;;;;;4.30;0.70;;;;;;;7.58;91.77;98179.72;4946585;29;20252;-55
2023/03/25 04:03:57;;;;;;;2.47;0.60;;;;;;;7.53;91.74;98178.38;4942271;29;20246;-55
2023/03/25 04:06:29;;;;;;;7.57;0.80;;;;;;;7.51;90.66;98187.28;4945417;29;20709;-53
2023/03/25 04:09:00;;;;;;;5.27;0.70;;;;;;;7.48;89.08;98187.56;4943990;29;20240;-56
2023/03/25 04:11:35;;;;;;;2.33;0.50;;;;;;;7.47;91.76;98193.72;4946728;29;20235;-56
2023/03/25 04:14:03;;;;;;;3.30;0.60;;;;;;;7.54;89.23;98195.59;4943599;29;20289;-56
2023/03/25 04:16:31;;;;;;;7.90;0.67;;;;;;;7.54;89.72;98195.59;4946709;28;20226;-56
2023/03/25 04:18:57;;;;;;;3.87;0.43;;;;;;;7.56;91.59;98184.25;4943994;29;20321;-57
2023/03/25 04:21:24;;;;;;;5.30;0.80;;;;;;;7.54;91.34;98187.00;4946623;29;20302;-57
2023/03/25 04:23:51;;;;;;;3.60;0.70;;;;;;;7.52;90.67;98179.34;4942622;29;20241;-57
2023/03/25 04:26:18;;;;;;;4.83;0.60;;;;;;;7.58;88.98;98174.53;4946901;29;20330;-55
2023/03/25 04:28:46;;;;;;;5.83;0.80;;;;;;;7.56;90.05;98177.28;4943640;29;20242;-57
2023/03/25 04:31:15;;;;;;;2.77;0.60;;;;;;;7.67;86.72;98181.47;5129468;23;20306;-55
2023/03/25 04:33:45;;;;;;;6.17;0.70;;;;;;;7.66;88.99;98166.84;4972372;28;20233;-52
2023/03/25 04:36:13;;;;;;;3.97;0.90;;;;;;;7.66;89.75;98172.88;4982487;28;20237;-55
2023/03/25 04:38:40;;;;;;;8.20;1.03;;;;;;;7.71;89.19;98163.84;4984073;28;20269;-55
2023/03/25 04:41:08;;;;;;;6.50;0.90;;;;;;;7.71;88.68;98174.22;4982385;28;20237;-55
2023/03/25 04:43:34;;;;;;;7.67;1.07;;;;;;;7.74;90.49;98184.34;4983919;28;20230;-55
2023/03/25 04:46:02;;;;;;;3.27;0.70;;;;;;;7.76;88.86;98169.41;4981670;28;20284;-52
2023/03/25 04:48:31;;;;;;;3.33;0.47;;;;;;;7.73;89.99;98177.50;4984828;28;20239;-51
2023/03/25 04:50:58;;;;;;;5.13;0.93;;;;;;;7.75;90.48;98167.78;4981921;28;20227;-55
2023/03/25 04:53:25;;;;;;;4.63;0.63;;;;;;;7.76;89.83;98170.22;4984407;28;20235;-52
2023/03/25 04:55:52;;;;;;;5.00;0.70;;;;;;;7.74;90.41;98161.75;4981814;28;20231;-54
2023/03/25 04:58:20;;;;;;;5.50;0.93;;;;;;;7.77;89.21;98168.47;4984578;28;20238;-52
2023/03/25 05:00:49;;;;;;;2.03;0.70;;;;;;;7.79;88.20;98167.34;4981653;28;20264;-54
2023/03/25 05:03:22;;;;;;;5.33;0.97;;;;;;;7.77;89.27;98169.25;4984349;28;20243;-56
2023/03/25 05:05:49;;;;;;;8.33;1.10;;;;;;;7.78;88.30;98165.72;4980221;28;20238;-55
2023/03/25 05:08:17;;;;;;;6.07;1.17;;;;;;;7.79;88.96;98161.34;4984424;28;20705;-56
2023/03/25 05:10:43;;;;;;;9.77;1.40;;;;;;;7.76;88.83;98159.84;4983862;28;20238;-52
2023/03/25 05:13:10;;;;;;;5.37;0.80;;;;;;;7.76;88.85;98164.22;4982094;28;20233;-52
2023/03/25 05:15:39;;;;;;;6.70;1.10;;;;;;;7.76;88.07;98166.81;4983420;28;20234;-53
2023/03/25 05:18:09;;;;;;;5.53;0.70;;;;;;;7.75;88.22;98155.59;4981954;28;20234;-53
2023/03/25 05:20:38;;;;;;;5.70;0.90;;;;;;;7.76;88.17;98161.63;4983150;28;20675;-56
2023/03/25 05:23:05;;;;;;;7.67;1.10;;;;;;;7.73;88.98;98183.50;4980979;28;20238;-52
2023/03/25 05:25:36;;;;;;;7.60;0.97;;;;;;;7.72;89.25;98173.28;4983687;28;20704;-56
2023/03/25 05:28:04;;;;;;;6.70;0.87;;;;;;;7.70;90.21;98172.59;4982516;28;20258;-53
2023/03/25 05:30:31;;;;;;;6.00;1.10;;;;;;;7.65;91.37;98160.84;4987854;28;20225;-53
2023/03/25 05:32:58;;;;;;;5.03;0.80;;;;;;;7.68;89.96;98165.75;4985516;28;20252;-54
2023/03/25 05:35:26;;;;;;;5.37;1.03;;;;;;;7.67;91.59;98161.53;4986738;28;20241;-53
2023/03/25 05:37:54;;;;;;;9.07;1.23;;;;;;;7.62;90.69;98178.50;4985237;28;20272;-54
2023/03/25 05:40:21;;;;;;;12.97;1.10;;;;;;;7.64;91.18;98166.19;4987926;28;20671;-53
2023/03/25 05:42:47;;;;;;;7.07;0.93;;;;;;;7.61;91.60;98167.28;4985075;28;20328;-54
2023/03/25 05:45:15;;;;;;;3.80;1.00;;;;;;;7.62;91.22;98176.72;4986701;28;20232;-52
2023/03/25 05:47:41;;;;;;;3.67;0.60;;;;;;;7.62;91.01;98187.13;4987159;28;20246;-57
2023/03/25 05:50:10;;;;;;;3.27;0.80;;;;;;;7.68;90.78;98181.34;4983956;28;20298;-54
2023/03/25 05:52:40;;;;;;;15.77;9.33;;;;;;;7.66;90.62;98179.84;4986527;28;20230;-53
2023/03/25 05:55:11;;;;;;;11.33;1.23;;;;;;;7.73;89.88;98183.50;4985297;28;20237;-55
2023/03/25 05:57:38;;;;;;;7.73;1.20;;;;;;;7.74;88.54;98186.94;4987494;28;20241;-55
2023/03/25 06:00:07;;;;;;;40.50;30.17;;;;;;;7.75;89.28;98176.38;4985347;28;20242;-55
2023/03/25 06:02:38;;;;;;;17.60;13.43;;;;;;;7.77;88.74;98177.06;4985990;28;20233;-56
2023/03/25 06:05:08;;;;;;;20.20;17.93;;;;;;;7.82;87.97;98177.44;4984834;28;20242;-54
2023/03/25 06:07:36;;;;;;;3.83;1.43;;;;;;;7.88;87.32;98165.69;4986816;28;20700;-56
2023/03/25 06:10:04;;;;;;;23.77;19.53;;;;;;;7.89;88.11;98171.66;4984855;28;20929;-55
2023/03/25 06:12:32;;;;;;;10.03;6.03;;;;;;;7.88;86.07;98178.66;4986996;28;20242;-55
2023/03/25 06:14:59;;;;;;;11.43;7.90;;;;;;;7.95;89.79;98194.50;4984974;28;20258;-54
2023/03/25 06:17:26;;;;;;;12.17;9.37;;;;;;;7.82;90.92;98200.03;4987417;28;20253;-52
2023/03/25 06:19:52;;;;;;;6.73;4.90;;;;;;;7.77;91.63;98199.63;4984118;28;20710;-54
2023/03/25 06:22:20;;;;;;;3.77;0.63;;;;;;;7.75;93.28;98198.97;4986487;28;20632;-54
2023/03/25 06:24:47;;;;;;;2.40;0.50;;;;;;;7.61;94.67;98195.88;4983961;28;20708;-56
2023/03/25 06:27:16;;;;;;;6.43;2.40;;;;;;;7.57;93.72;98198.88;4986331;28;20241;-52
2023/03/25 06:29:44;;;;;;;3.77;1.30;;;;;;;7.63;93.98;98196.53;4986712;28;20224;-55
2023/03/25 06:32:15;;;;;;;1.43;0.80;;;;;;;7.63;96.22;98193.13;4977337;28;20332;-53
2023/03/25 06:34:43;;;;;;;6.23;0.97;;;;;;;7.50;98.63;98209.03;4968601;28;20231;-52
2023/03/25 06:37:12;;;;;;;8.37;0.90;;;;;;;7.57;96.50;98193.69;4985281;28;20679;-52
2023/03/25 06:39:38;;;;;;;5.53;0.60;;;;;;;7.53;97.28;98185.38;4982995;28;20456;-53
2023/03/25 06:42:17;;;;;;;3.73;0.60;;;;;;;7.61;94.19;98184.66;4967518;28;20586;-54
2023/03/25 06:45:17;;;;;;;2.78;0.80;;;;;;;7.75;93.96;98196.38;4983919;28;20451;-54
2023/03/25 06:47:55;;;;;;;4.70;0.93;;;;;;;7.81;93.71;98169.81;4966742;28;20400;-54
2023/03/25 06:50:21;;;;;;;2.53;0.50;;;;;;;7.87;92.86;98160.59;4986778;28;20238;-52
2023/03/25 06:52:48;;;;;;;3.33;0.60;;;;;;;7.98;92.62;98165.59;4983895;28;20234;-55
2023/03/25 06:55:15;;;;;;;3.37;0.90;;;;;;;8.05;91.08;98156.25;4986489;28;20642;-56
2023/03/25 06:57:42;;;;;;;2.10;0.87;;;;;;;8.05;90.89;98171.88;4985247;28;20230;-54
2023/03/25 07:00:10;;;;;;;2.47;0.67;;;;;;;8.20;90.63;98174.78;4982875;28;20765;-55
2023/03/25 07:02:39;;;;;;;3.73;0.63;;;;;;;8.13;88.17;98179.75;4985551;28;20286;-53
2023/03/25 07:05:06;;;;;;;4.10;0.80;;;;;;;8.26;87.32;98166.38;4983694;28;20236;-55
2023/03/25 07:07:33;;;;;;;3.00;0.60;;;;;;;8.40;88.29;98167.66;4985326;28;20291;-55
2023/03/25 07:10:00;;;;;;;2.10;0.90;;;;;;;8.35;84.92;98159.50;4984116;28;20591;-52
2023/03/25 07:12:26;;;;;;;4.47;0.50;;;;;;;8.35;87.60;98172.50;4986070;28;20238;-53
2023/03/25 07:14:54;;;;;;;5.67;0.60;;;;;;;8.45;85.14;98163.81;4983213;28;20238;-53
2023/03/25 07:17:21;;;;;;;2.07;1.00;;;;;;;8.50;86.98;98179.78;4985905;28;20246;-53
2023/03/25 07:19:50;;;;;;;2.33;0.60;;;;;;;8.49;85.50;98185.97;4983181;28;20763;-55
2023/03/25 07:22:17;;;;;;;5.40;0.70;;;;;;;8.57;86.31;98170.44;4985273;28;20250;-53
2023/03/25 07:24:43;;;;;;;2.80;0.63;;;;;;;8.62;86.02;98168.19;4984597;28;20243;-54
2023/03/25 07:27:13;;;;;;;1.47;0.47;;;;;;;8.64;86.06;98165.47;4983752;28;20240;-54
2023/03/25 07:29:42;;;;;;;3.20;0.30;;;;;;;8.73;87.32;98174.13;4968183;28;20242;-54
2023/03/25 07:32:08;;;;;;;4.43;0.63;;;;;;;8.72;85.06;98170.75;4983448;28;20240;-54
2023/03/25 07:34:35;;;;;;;2.77;0.50;;;;;;;8.62;86.32;98189.00;4984780;28;20242;-54
2023/03/25 07:37:03;;;;;;;3.23;0.50;;;;;;;8.59;86.04;98171.09;4983784;28;20289;-54
2023/03/25 07:39:30;;;;;;;2.97;0.40;;;;;;;8.55;85.56;98180.16;4985472;28;20304;-52
2023/03/25 07:41:57;;;;;;;3.50;0.43;;;;;;;8.49;87.80;98192.00;4982934;28;20234;-52
2023/03/25 07:44:33;;;;;;;2.27;0.30;;;;;;;8.30;87.95;98194.69;4984158;28;20234;-51
2023/03/25 07:46:59;;;;;;;4.40;0.57;;;;;;;8.35;89.56;98216.72;4983166;28;20234;-53
2023/03/25 07:49:26;;;;;;;4.30;0.53;;;;;;;8.11;93.34;98204.25;4984630;28;20225;-52
2023/03/25 07:51:52;;;;;;;2.57;0.50;;;;;;;7.86;95.46;98203.16;4982550;28;20245;-55
2023/03/25 07:54:23;;;;;;;1.10;0.50;;;;;;;7.80;97.64;98212.34;4984387;28;20225;-53
2023/03/25 07:56:49;;;;;;;1.80;0.50;;;;;;;7.64;99.08;98216.38;4982356;28;20235;-52
2023/03/25 07:59:16;;;;;;;3.93;0.97;;;;;;;7.65;99.62;98219.75;4985509;28;20238;-55
2023/03/25 08:01:43;;;;;;;2.53;0.45;;;;;;;7.64;97.03;98224.16;4983674;28;20445;-52
2023/03/25 08:04:11;;;;;;;6.60;0.77;;;;;;;7.74;97.59;98203.31;4983327;28;20240;-54
2023/03/25 08:06:38;;;;;;;3.77;2.00;;;;;;;7.85;100.00;98191.94;4983623;28;20649;-53
2023/03/25 08:09:05;;;;;;;1.57;0.40;;;;;;;7.81;99.54;98206.19;4983252;28;20234;-55
2023/03/25 08:11:33;;;;;;;2.67;0.77;;;;;;;7.73;100.00;98222.47;4984373;28;20227;-54
2023/03/25 08:14:00;;;;;;;2.10;1.27;;;;;;;7.69;100.00;98210.72;4982933;28;20825;-56
2023/03/25 08:16:26;;;;;;;2.97;0.60;;;;;;;7.77;100.00;98191.84;4984813;28;20242;-53
2023/03/25 08:18:53;;;;;;;1.00;0.47;;;;;;;7.86;100.00;98188.38;4982446;28;20241;-55
2023/03/25 08:21:23;;;;;;;4.57;0.50;;;;;;;7.99;100.00;98198.44;4985346;28;20239;-56
2023/03/25 08:23:51;;;;;;;0.77;0.50;;;;;;;7.99;100.00;98198.44;4982521;28;20313;-57
2023/03/25 08:26:18;;;;;;;4.53;0.60;;;;;;;8.03;100.00;98180.75;4984309;28;20652;-53
2023/03/25 08:28:46;;;;;;;3.77;0.93;;;;;;;8.13;100.00;98179.75;4984653;28;20233;-57
2023/03/25 08:31:14;;;;;;;1.80;0.60;;;;;;;8.33;100.00;98181.41;4982681;28;20590;-55
2023/03/25 08:33:41;;;;;;;3.53;0.53;;;;;;;8.43;99.52;98169.16;4984065;28;20262;-57
2023/03/25 08:36:12;;;;;;;2.27;0.57;;;;;;;8.30;98.35;98192.94;4976766;28;20285;-56
2023/03/25 08:38:39;;;;;;;2.80;1.00;;;;;;;8.27;98.93;98183.63;4984505;28;20320;-54
2023/03/25 08:41:06;;;;;;;3.67;0.67;;;;;;;8.46;98.79;98188.84;4982540;28;20275;-54
2023/03/25 08:43:32;;;;;;;5.43;0.83;;;;;;;8.49;97.61;98205.00;4966661;28;20238;-54
2023/03/25 08:46:00;;;;;;;2.20;0.80;;;;;;;8.41;97.13;98182.31;4982888;28;20228;-55
2023/03/25 08:48:27;;;;;;;3.93;0.40;;;;;;;8.50;96.95;98185.00;4984677;28;20239;-54
2023/03/25 08:50:54;;;;;;;3.10;0.80;;;;;;;8.81;98.18;98188.06;4980289;28;20257;-53
2023/03/25 08:53:20;;;;;;;1.53;0.47;;;;;;;9.07;96.32;98189.06;4983940;28;20881;-53
2023/03/25 08:55:50;;;;;;;3.87;0.70;;;;;;;9.14;93.24;98185.66;4981975;28;20623;-55
2023/03/25 08:58:17;;;;;;;1.83;0.53;;;;;;;9.39;95.18;98180.63;4984729;28;20763;-56
2023/03/25 09:00:43;;;;;;;2.50;0.70;;;;;;;9.24;91.03;98192.56;4983906;28;20244;-56
2023/03/25 09:03:11;;;;;;;4.53;1.00;;;;;;;9.74;89.69;98184.06;4985694;28;20291;-57
2023/03/25 09:05:38;;;;;;;2.90;0.80;;;;;;;9.73;91.77;98207.66;4988058;28;20292;-56
2023/03/25 09:08:04;;;;;;;2.67;0.53;;;;;;;9.70;88.60;98190.56;4986553;28;20309;-56
2023/03/25 09:10:31;;;;;;;4.73;0.80;;;;;;;9.72;86.22;98190.38;4987705;28;20305;-56
2023/03/25 09:12:58;;;;;;;1.93;0.50;;;;;;;9.47;89.56;98195.50;4986346;28;20241;-53
2023/03/25 09:15:25;;;;;;;5.33;0.67;;;;;;;9.40;88.05;98178.84;4987766;28;20701;-57
2023/03/25 09:17:54;;;;;;;1.33;0.50;;;;;;;9.42;88.22;98192.53;4985435;28;20234;-57
2023/03/25 09:20:22;;;;;;;2.53;0.60;;;;;;;9.42;90.30;98197.75;4988171;28;20241;-56
2023/03/25 09:22:49;;;;;;;2.50;0.50;;;;;;;9.39;89.73;98185.84;4985130;28;20319;-56
2023/03/25 09:25:16;;;;;;;3.20;0.73;;;;;;;9.35;88.35;98188.91;4987986;28;20718;-56
2023/03/25 09:27:43;;;;;;;1.47;0.70;;;;;;;9.39;87.18;98187.63;4986493;28;20233;-56
2023/03/25 09:30:10;;;;;;;2.10;0.40;;;;;;;9.28;88.58;98189.53;4986557;28;20706;-56
2023/03/25 09:32:37;;;;;;;4.00;0.83;;;;;;;9.23;88.80;98181.34;4987188;28;20311;-55
2023/03/25 09:35:04;;;;;;;3.10;0.60;;;;;;;9.34;86.38;98176.84;4985844;28;20242;-53
2023/03/25 09:37:32;;;;;;;3.33;0.47;;;;;;;9.36;87.31;98167.91;4987423;28;20339;-57
2023/03/25 09:39:59;;;;;;;3.23;0.77;;;;;;;9.49;87.17;98180.53;4985922;28;20578;-56
2023/03/25 09:42:37;;;;;;;2.47;0.57;;;;;;;9.47;89.37;98164.25;4987376;28;20680;-54
2023/03/25 09:45:16;;;;;;;4.03;0.70;;;;;;;9.74;88.22;98170.19;4984413;28;20300;-57
2023/03/25 09:47:52;;;;;;;1.53;0.43;;;;;;;9.97;86.47;98193.09;4969055;28;20227;-55
2023/03/25 09:50:21;;;;;;;5.33;0.50;;;;;;;10.04;81.92;98184.50;4985650;28;20281;-53
2023/03/25 09:52:56;;;;;;;3.70;0.70;;;;;;;9.67;85.81;98198.69;4984664;28;20311;-57
2023/03/25 09:55:26;;;;;;;2.87;0.40;;;;;;;9.56;88.23;98209.38;4987565;28;20732;-56
2023/03/25 09:58:00;;;;;;;4.30;0.50;;;;;;;9.23;89.83;98203.97;4984884;28;20307;-53
2023/03/25 10:00:27;;;;;;;2.00;0.60;;;;;;;9.38;92.30;98199.03;4987256;28;20238;-56
2023/03/25 10:03:01;;;;;;;1.80;0.60;;;;;;;9.01;92.59;98208.69;4984932;28;20831;-57
2023/03/25 10:06:05;;;;;;;2.73;0.53;;;;;;;9.20;92.31;98205.09;4988014;28;20247;-57
2023/03/25 10:08:44;;;;;;;4.63;1.00;;;;;;;9.20;92.03;98217.28;4943028;28;20232;-55
2023/03/25 10:11:17;;;;;;;3.50;0.90;;;;;;;9.11;92.18;98229.44;4985703;28;20300;-56
2023/03/25 10:13:50;;;;;;;3.07;0.83;;;;;;;9.14;89.97;98237.75;4986547;28;20231;-55
2023/03/25 10:16:26;;;;;;;3.37;1.00;;;;;;;9.47;90.21;98218.94;4979443;28;20238;-55
2023/03/25 10:19:03;;;;;;;5.73;1.17;;;;;;;9.75;92.18;98234.38;4983361;28;20233;-54
2023/03/25 10:21:37;;;;;;;1.87;0.70;;;;;;;9.87;91.93;98221.91;4987088;28;20234;-56
2023/03/25 10:24:16;;;;;;;4.17;0.80;;;;;;;9.93;92.88;98223.91;4982485;28;20233;-54
2023/03/25 10:26:47;;;;;;;2.93;0.80;;;;;;;10.11;89.84;98231.63;4983776;28;20570;-55
2023/03/25 10:29:18;;;;;;;3.37;0.70;;;;;;;10.41;88.07;98226.84;4982632;28;20235;-57
2023/03/25 10:31:51;;;;;;;3.80;1.00;;;;;;;10.57;86.95;98235.69;4983538;28;20247;-56
2023/03/25 10:34:20;;;;;;;4.37;0.70;;;;;;;10.58;86.01;98242.53;4982612;28;20231;-56
2023/03/25 10:36:53;;;;;;;2.93;1.03;;;;;;;10.35;86.12;98230.06;4981562;28;20724;-56
2023/03/25 10:39:23;;;;;;;3.63;0.90;;;;;;;10.26;85.74;98226.59;4985754;28;20232;-55
2023/03/25 10:41:55;;;;;;;4.70;0.90;;;;;;;10.39;82.27;98227.94;4983041;28;20241;-56
2023/03/25 10:44:24;;;;;;;4.13;1.23;;;;;;;10.18;86.23;98229.19;4985709;28;20567;-57
2023/03/25 10:46:56;;;;;;;2.00;0.70;;;;;;;10.11;85.33;98204.72;4980843;28;29758;-56
2023/03/25 10:49:27;;;;;;;2.93;0.80;;;;;;;9.80;86.11;98198.25;4986174;28;20808;-55
2023/03/25 10:51:56;;;;;;;3.83;0.67;;;;;;;9.57;87.97;98214.41;4983346;28;20772;-53
2023/03/25 10:54:27;;;;;;;3.50;0.83;;;;;;;9.57;85.85;98219.63;4984983;28;20258;-52
2023/03/25 10:56:58;;;;;;;3.43;1.00;;;;;;;9.47;85.05;98213.72;4982725;28;20290;-52
2023/03/25 10:59:30;;;;;;;5.17;0.73;;;;;;;9.65;81.14;98207.63;4986331;28;20239;-56
2023/03/25 11:01:57;;;;;;;3.47;0.60;;;;;;;9.71;83.84;98210.44;4983910;28;20239;-53
2023/03/25 11:04:34;;;;;;;2.27;0.47;;;;;;;9.73;86.57;98197.22;4985369;28;20314;-56
2023/03/25 11:07:04;;;;;;;1.67;0.60;;;;;;;9.55;86.98;98207.75;4981797;28;20651;-56
2023/03/25 11:09:35;;;;;;;3.57;0.60;;;;;;;9.26;88.93;98194.06;4982681;28;20224;-53
2023/03/25 11:12:06;;;;;;;1.67;0.60;;;;;;;9.37;88.32;98218.22;4981021;28;20714;-56
2023/03/25 11:14:37;;;;;;;2.93;0.63;;;;;;;9.43;88.17;98228.84;4984222;28;20251;-56
2023/03/25 11:17:11;;;;;;;4.23;0.90;;;;;;;9.44;89.98;98240.91;4981859;28;20303;-54
2023/03/25 11:19:41;;;;;;;2.53;0.60;;;;;;;9.45;89.01;98255.56;4984689;28;20842;-55
2023/03/25 11:22:11;;;;;;;1.53;0.90;;;;;;;9.74;85.06;98256.22;4981944;28;20272;-53
2023/03/25 11:24:44;;;;;;;2.17;0.50;;;;;;;9.75;85.73;98250.03;4984517;28;20294;-55
2023/03/25 11:27:19;;;;;;;2.90;0.80;;;;;;;9.96;83.91;98251.44;4984022;28;20245;-55
2023/03/25 11:29:52;;;;;;;5.17;1.90;;;;;;;10.05;87.82;98247.88;4983898;28;20369;-57
2023/03/25 11:32:24;;;;;;;3.70;0.93;;;;;;;9.91;87.69;98236.28;4985538;28;20239;-58
2023/03/25 11:34:53;;;;;;;3.03;0.73;;;;;;;10.31;86.03;98223.53;4963116;28;20677;-55
2023/03/25 11:37:23;;;;;;;2.60;0.90;;;;;;;10.42;83.56;98225.88;4985156;28;20243;-54
2023/03/25 11:39:54;;;;;;;3.30;0.90;;;;;;;10.37;83.60;98211.63;4981728;28;20517;-53
2023/03/25 11:42:31;;;;;;;2.23;0.73;;;;;;;10.23;82.83;98210.47;4985335;28;20324;-55
2023/03/25 11:45:01;;;;;;;1.80;0.87;;;;;;;10.18;84.53;98203.09;4982608;28;20248;-57
2023/03/25 11:47:31;;;;;;;3.53;0.87;;;;;;;10.02;83.47;98214.31;4985795;28;20704;-56
2023/03/25 11:49:58;;;;;;;6.17;1.80;;;;;;;9.86;81.00;98215.88;4982263;28;20284;-55
2023/03/25 11:52:27;;;;;;;6.53;1.03;;;;;;;9.65;81.35;98310.09;4984777;28;20745;-56
2023/03/25 11:54:56;;;;;;;5.43;0.70;;;;;;;8.42;87.06;98307.97;4965119;28;20231;-57
2023/03/25 11:57:26;;;;;;;2.97;0.60;;;;;;;8.23;91.54;98275.06;4969510;28;20239;-56